sensor_id;sensor_type;location;lat;lon;timestamp;P1;durP1;ratioP1;P2;durP2;ratioP2
10902;SDS011;5504;47.312;11.060;2023-04-25T00:00:34;1.67;;;1.30;;
10902;SDS011;5504;47.312;11.060;2023-04-25T00:02:59;1.47;;;1.37;;
10902;SDS011;5504;47.312;11.060;2023-04-25T00:05:26;1.90;;;1.30;;
10902;SDS011;5504;47.312;11.060;2023-04-25T00:07:52;1.40;;;1.30;;
10902;SDS011;5504;47.312;11.060;2023-04-25T00:10:18;1.63;;;1.33;;
10902;SDS011;5504;47.312;11.060;2023-04-25T00:12:45;2.00;;;1.43;;
10902;SDS011;5504;47.312;11.060;2023-04-25T00:15:11;1.50;;;1.40;;
10902;SDS011;5504;47.312;11.060;2023-04-25T00:17:37;1.63;;;1.20;;
10902;SDS011;5504;47.312;11.060;2023-04-25T00:20:06;3.27;;;1.30;;
10902;SDS011;5504;47.312;11.060;2023-04-25T00:22:34;1.47;;;1.33;;
10902;SDS011;5504;47.312;11.060;2023-04-25T00:25:02;1.53;;;1.30;;
10902;SDS011;5504;47.312;11.060;2023-04-25T00:27:29;1.90;;;1.20;;
10902;SDS011;5504;47.312;11.060;2023-04-25T00:29:55;1.47;;;1.30;;
10902;SDS011;5504;47.312;11.060;2023-04-25T00:32:20;2.27;;;1.50;;
10902;SDS011;5504;47.312;11.060;2023-04-25T00:34:46;2.17;;;1.30;;
10902;SDS011;5504;47.312;11.060;2023-04-25T00:37:12;2.17;;;1.40;;
10902;SDS011;5504;47.312;11.060;2023-04-25T00:39:37;1.33;;;1.23;;
10902;SDS011;5504;47.312;11.060;2023-04-25T00:42:03;1.27;;;1.17;;
10902;SDS011;5504;47.312;11.060;2023-04-25T00:44:30;1.40;;;1.30;;
10902;SDS011;5504;47.312;11.060;2023-04-25T00:47:00;1.40;;;1.30;;
10902;SDS011;5504;47.312;11.060;2023-04-25T00:49:26;2.93;;;1.40;;
10902;SDS011;5504;47.312;11.060;2023-04-25T00:51:52;2.40;;;1.47;;
10902;SDS011;5504;47.312;11.060;2023-04-25T00:54:18;1.40;;;1.30;;
10902;SDS011;5504;47.312;11.060;2023-04-25T00:56:44;1.63;;;1.37;;
10902;SDS011;5504;47.312;11.060;2023-04-25T00:59:10;1.57;;;1.30;;
10902;SDS011;5504;47.312;11.060;2023-04-25T01:01:36;1.47;;;1.30;;
10902;SDS011;5504;47.312;11.060;2023-04-25T01:04:04;1.80;;;1.50;;
10902;SDS011;5504;47.312;11.060;2023-04-25T01:06:29;1.40;;;1.30;;
10902;SDS011;5504;47.312;11.060;2023-04-25T01:08:56;1.93;;;1.40;;
10902;SDS011;5504;47.312;11.060;2023-04-25T01:11:23;2.03;;;1.53;;
10902;SDS011;5504;47.312;11.060;2023-04-25T01:13:49;2.70;;;1.50;;
10902;SDS011;5504;47.312;11.060;2023-04-25T01:16:15;1.93;;;1.40;;
10902;SDS011;5504;47.312;11.060;2023-04-25T01:18:41;1.70;;;1.60;;
10902;SDS011;5504;47.312;11.060;2023-04-25T01:21:08;1.60;;;1.50;;
10902;SDS011;5504;47.312;11.060;2023-04-25T01:23:35;3.23;;;1.70;;
10902;SDS011;5504;47.312;11.060;2023-04-25T01:26:02;1.50;;;1.40;;
10902;SDS011;5504;47.312;11.060;2023-04-25T01:28:28;1.53;;;1.43;;
10902;SDS011;5504;47.312;11.060;2023-04-25T01:30:54;1.80;;;1.70;;
10902;SDS011;5504;47.312;11.060;2023-04-25T01:33:21;1.40;;;1.30;;
10902;SDS011;5504;47.312;11.060;2023-04-25T01:35:47;1.60;;;1.50;;
10902;SDS011;5504;47.312;11.060;2023-04-25T01:38:13;2.33;;;1.60;;
10902;SDS011;5504;47.312;11.060;2023-04-25T01:40:40;2.23;;;1.60;;
10902;SDS011;5504;47.312;11.060;2023-04-25T01:43:06;1.70;;;1.60;;
10902;SDS011;5504;47.312;11.060;2023-04-25T01:45:40;1.70;;;1.60;;
10902;SDS011;5504;47.312;11.060;2023-04-25T01:48:07;2.23;;;1.63;;
10902;SDS011;5504;47.312;11.060;2023-04-25T01:50:33;1.83;;;1.60;;
10902;SDS011;5504;47.312;11.060;2023-04-25T01:52:59;2.00;;;1.50;;
10902;SDS011;5504;47.312;11.060;2023-04-25T01:55:27;1.77;;;1.67;;
10902;SDS011;5504;47.312;11.060;2023-04-25T01:57:53;1.60;;;1.50;;
10902;SDS011;5504;47.312;11.060;2023-04-25T02:00:19;2.50;;;1.60;;
10902;SDS011;5504;47.312;11.060;2023-04-25T02:02:45;1.70;;;1.60;;
10902;SDS011;5504;47.312;11.060;2023-04-25T02:05:11;1.77;;;1.67;;
10902;SDS011;5504;47.312;11.060;2023-04-25T02:07:37;1.67;;;1.57;;
10902;SDS011;5504;47.312;11.060;2023-04-25T02:10:03;1.70;;;1.60;;
10902;SDS011;5504;47.312;11.060;2023-04-25T02:12:29;3.00;;;2.00;;
10902;SDS011;5504;47.312;11.060;2023-04-25T02:14:55;2.10;;;1.63;;
10902;SDS011;5504;47.312;11.060;2023-04-25T02:17:21;3.07;;;1.70;;
10902;SDS011;5504;47.312;11.060;2023-04-25T02:19:47;1.70;;;1.60;;
10902;SDS011;5504;47.312;11.060;2023-04-25T02:22:13;1.60;;;1.50;;
10902;SDS011;5504;47.312;11.060;2023-04-25T02:24:39;2.00;;;1.80;;
10902;SDS011;5504;47.312;11.060;2023-04-25T02:27:05;2.03;;;1.60;;
10902;SDS011;5504;47.312;11.060;2023-04-25T02:29:31;2.23;;;1.80;;
10902;SDS011;5504;47.312;11.060;2023-04-25T02:31:56;3.00;;;1.90;;
10902;SDS011;5504;47.312;11.060;2023-04-25T02:34:22;1.80;;;1.70;;
10902;SDS011;5504;47.312;11.060;2023-04-25T02:36:48;1.80;;;1.70;;
10902;SDS011;5504;47.312;11.060;2023-04-25T02:39:17;2.33;;;1.77;;
10902;SDS011;5504;47.312;11.060;2023-04-25T02:41:43;1.77;;;1.67;;
10902;SDS011;5504;47.312;11.060;2023-04-25T02:44:08;2.37;;;1.97;;
10902;SDS011;5504;47.312;11.060;2023-04-25T02:46:34;1.90;;;1.80;;
10902;SDS011;5504;47.312;11.060;2023-04-25T02:49:00;2.57;;;2.30;;
10902;SDS011;5504;47.312;11.060;2023-04-25T02:51:26;2.00;;;1.90;;
10902;SDS011;5504;47.312;11.060;2023-04-25T02:53:51;2.10;;;2.00;;
10902;SDS011;5504;47.312;11.060;2023-04-25T02:56:17;1.93;;;1.83;;
10902;SDS011;5504;47.312;11.060;2023-04-25T02:58:43;3.33;;;2.07;;
10902;SDS011;5504;47.312;11.060;2023-04-25T03:01:09;2.20;;;2.00;;
10902;SDS011;5504;47.312;11.060;2023-04-25T03:03:35;2.23;;;2.03;;
10902;SDS011;5504;47.312;11.060;2023-04-25T03:06:00;2.30;;;2.07;;
10902;SDS011;5504;47.312;11.060;2023-04-25T03:08:26;2.73;;;2.23;;
10902;SDS011;5504;47.312;11.060;2023-04-25T03:10:57;2.40;;;2.20;;
10902;SDS011;5504;47.312;11.060;2023-04-25T03:13:23;1.90;;;1.70;;
10902;SDS011;5504;47.312;11.060;2023-04-25T03:15:49;2.33;;;2.13;;
10902;SDS011;5504;47.312;11.060;2023-04-25T03:18:15;2.73;;;2.30;;
10902;SDS011;5504;47.312;11.060;2023-04-25T03:20:41;2.50;;;2.30;;
10902;SDS011;5504;47.312;11.060;2023-04-25T03:23:06;2.00;;;1.90;;
10902;SDS011;5504;47.312;11.060;2023-04-25T03:25:32;1.93;;;1.80;;
10902;SDS011;5504;47.312;11.060;2023-04-25T03:27:58;2.20;;;2.00;;
10902;SDS011;5504;47.312;11.060;2023-04-25T03:30:23;1.93;;;1.80;;
10902;SDS011;5504;47.312;11.060;2023-04-25T03:32:49;2.10;;;1.90;;
10902;SDS011;5504;47.312;11.060;2023-04-25T03:35:17;2.40;;;2.20;;
10902;SDS011;5504;47.312;11.060;2023-04-25T03:37:42;2.80;;;2.50;;
10902;SDS011;5504;47.312;11.060;2023-04-25T03:40:11;2.37;;;2.13;;
10902;SDS011;5504;47.312;11.060;2023-04-25T03:42:37;2.40;;;2.20;;
10902;SDS011;5504;47.312;11.060;2023-04-25T03:45:02;2.40;;;2.20;;
10902;SDS011;5504;47.312;11.060;2023-04-25T03:47:28;3.70;;;2.43;;
10902;SDS011;5504;47.312;11.060;2023-04-25T03:49:54;2.83;;;2.40;;
10902;SDS011;5504;47.312;11.060;2023-04-25T03:52:20;3.97;;;2.70;;
10902;SDS011;5504;47.312;11.060;2023-04-25T03:54:45;2.53;;;2.33;;
10902;SDS011;5504;47.312;11.060;2023-04-25T03:57:11;2.50;;;2.30;;
10902;SDS011;5504;47.312;11.060;2023-04-25T03:59:37;3.40;;;2.40;;
10902;SDS011;5504;47.312;11.060;2023-04-25T04:02:02;2.50;;;2.30;;
10902;SDS011;5504;47.312;11.060;2023-04-25T04:04:28;2.57;;;2.30;;
10902;SDS011;5504;47.312;11.060;2023-04-25T04:06:55;3.80;;;2.30;;
10902;SDS011;5504;47.312;11.060;2023-04-25T04:09:20;2.50;;;2.30;;
10902;SDS011;5504;47.312;11.060;2023-04-25T04:11:46;2.63;;;2.43;;
10902;SDS011;5504;47.312;11.060;2023-04-25T04:14:12;2.20;;;2.00;;
10902;SDS011;5504;47.312;11.060;2023-04-25T04:16:37;2.40;;;2.20;;
10902;SDS011;5504;47.312;11.060;2023-04-25T04:19:03;2.33;;;2.07;;
10902;SDS011;5504;47.312;11.060;2023-04-25T04:21:29;2.40;;;2.20;;
10902;SDS011;5504;47.312;11.060;2023-04-25T04:23:55;2.50;;;2.30;;
10902;SDS011;5504;47.312;11.060;2023-04-25T04:26:22;2.97;;;2.20;;
10902;SDS011;5504;47.312;11.060;2023-04-25T04:28:48;2.27;;;1.87;;
10902;SDS011;5504;47.312;11.060;2023-04-25T04:31:19;2.10;;;1.90;;
10902;SDS011;5504;47.312;11.060;2023-04-25T04:33:48;2.17;;;1.83;;
10902;SDS011;5504;47.312;11.060;2023-04-25T04:36:14;2.60;;;2.00;;
10902;SDS011;5504;47.312;11.060;2023-04-25T04:38:40;2.10;;;1.90;;
10902;SDS011;5504;47.312;11.060;2023-04-25T04:41:07;2.10;;;2.00;;
10902;SDS011;5504;47.312;11.060;2023-04-25T04:43:33;2.17;;;1.97;;
10902;SDS011;5504;47.312;11.060;2023-04-25T04:46:02;2.00;;;1.80;;
10902;SDS011;5504;47.312;11.060;2023-04-25T04:48:29;2.10;;;1.90;;
10902;SDS011;5504;47.312;11.060;2023-04-25T04:50:57;2.27;;;2.07;;
10902;SDS011;5504;47.312;11.060;2023-04-25T04:53:23;1.83;;;1.73;;
10902;SDS011;5504;47.312;11.060;2023-04-25T04:55:49;2.77;;;1.90;;
10902;SDS011;5504;47.312;11.060;2023-04-25T04:58:15;2.07;;;1.83;;
10902;SDS011;5504;47.312;11.060;2023-04-25T05:00:40;2.00;;;1.90;;
10902;SDS011;5504;47.312;11.060;2023-04-25T05:03:06;2.00;;;1.90;;
10902;SDS011;5504;47.312;11.060;2023-04-25T05:05:32;2.10;;;1.90;;
10902;SDS011;5504;47.312;11.060;2023-04-25T05:07:57;2.17;;;2.07;;
10902;SDS011;5504;47.312;11.060;2023-04-25T05:10:23;2.57;;;2.00;;
10902;SDS011;5504;47.312;11.060;2023-04-25T05:12:49;2.57;;;2.33;;
10902;SDS011;5504;47.312;11.060;2023-04-25T05:15:15;2.60;;;2.40;;
10902;SDS011;5504;47.312;11.060;2023-04-25T05:17:41;2.50;;;2.30;;
10902;SDS011;5504;47.312;11.060;2023-04-25T05:20:07;2.37;;;2.17;;
10902;SDS011;5504;47.312;11.060;2023-04-25T05:22:34;2.10;;;1.93;;
10902;SDS011;5504;47.312;11.060;2023-04-25T05:25:01;1.90;;;1.80;;
10902;SDS011;5504;47.312;11.060;2023-04-25T05:27:27;2.10;;;1.90;;
10902;SDS011;5504;47.312;11.060;2023-04-25T05:29:52;2.03;;;1.83;;
10902;SDS011;5504;47.312;11.060;2023-04-25T05:32:18;2.73;;;2.00;;
10902;SDS011;5504;47.312;11.060;2023-04-25T05:34:44;2.57;;;2.27;;
10902;SDS011;5504;47.312;11.060;2023-04-25T05:37:09;2.60;;;2.40;;
10902;SDS011;5504;47.312;11.060;2023-04-25T05:39:35;2.90;;;2.20;;
10902;SDS011;5504;47.312;11.060;2023-04-25T05:42:01;2.37;;;2.17;;
10902;SDS011;5504;47.312;11.060;2023-04-25T05:44:27;2.90;;;2.60;;
10902;SDS011;5504;47.312;11.060;2023-04-25T05:46:53;2.80;;;2.60;;
10902;SDS011;5504;47.312;11.060;2023-04-25T05:49:19;5.90;;;3.80;;
10902;SDS011;5504;47.312;11.060;2023-04-25T05:51:45;3.27;;;2.67;;
10902;SDS011;5504;47.312;11.060;2023-04-25T05:54:11;2.60;;;2.40;;
10902;SDS011;5504;47.312;11.060;2023-04-25T05:56:36;3.00;;;2.70;;
10902;SDS011;5504;47.312;11.060;2023-04-25T05:59:02;4.03;;;3.40;;
10902;SDS011;5504;47.312;11.060;2023-04-25T06:01:28;4.47;;;3.50;;
10902;SDS011;5504;47.312;11.060;2023-04-25T06:03:54;3.50;;;3.20;;
10902;SDS011;5504;47.312;11.060;2023-04-25T06:06:19;3.17;;;2.87;;
10902;SDS011;5504;47.312;11.060;2023-04-25T06:08:45;4.33;;;2.60;;
10902;SDS011;5504;47.312;11.060;2023-04-25T06:11:11;2.17;;;2.00;;
10902;SDS011;5504;47.312;11.060;2023-04-25T06:13:37;3.07;;;2.70;;
10902;SDS011;5504;47.312;11.060;2023-04-25T06:16:03;2.10;;;1.90;;
10902;SDS011;5504;47.312;11.060;2023-04-25T06:18:29;2.30;;;2.10;;
10902;SDS011;5504;47.312;11.060;2023-04-25T06:20:55;3.03;;;2.37;;
10902;SDS011;5504;47.312;11.060;2023-04-25T06:23:20;2.63;;;2.43;;
10902;SDS011;5504;47.312;11.060;2023-04-25T06:25:46;3.50;;;2.90;;
10902;SDS011;5504;47.312;11.060;2023-04-25T06:28:12;2.87;;;2.67;;
10902;SDS011;5504;47.312;11.060;2023-04-25T06:30:37;3.33;;;2.47;;
10902;SDS011;5504;47.312;11.060;2023-04-25T06:33:03;2.77;;;2.40;;
10902;SDS011;5504;47.312;11.060;2023-04-25T06:35:29;2.63;;;2.43;;
10902;SDS011;5504;47.312;11.060;2023-04-25T06:37:55;2.93;;;2.53;;
10902;SDS011;5504;47.312;11.060;2023-04-25T06:40:20;2.30;;;2.10;;
10902;SDS011;5504;47.312;11.060;2023-04-25T06:42:46;2.40;;;2.20;;
10902;SDS011;5504;47.312;11.060;2023-04-25T06:45:12;2.30;;;2.10;;
10902;SDS011;5504;47.312;11.060;2023-04-25T06:47:37;4.30;;;2.20;;
10902;SDS011;5504;47.312;11.060;2023-04-25T06:50:03;2.40;;;2.20;;
10902;SDS011;5504;47.312;11.060;2023-04-25T06:52:29;2.60;;;2.40;;
10902;SDS011;5504;47.312;11.060;2023-04-25T06:54:55;2.60;;;2.40;;
10902;SDS011;5504;47.312;11.060;2023-04-25T06:57:21;3.63;;;2.40;;
10902;SDS011;5504;47.312;11.060;2023-04-25T06:59:46;2.60;;;2.10;;
10902;SDS011;5504;47.312;11.060;2023-04-25T07:02:12;2.20;;;2.00;;
10902;SDS011;5504;47.312;11.060;2023-04-25T07:04:38;2.43;;;2.00;;
10902;SDS011;5504;47.312;11.060;2023-04-25T07:07:03;2.30;;;1.80;;
10902;SDS011;5504;47.312;11.060;2023-04-25T07:09:29;1.63;;;1.53;;
10902;SDS011;5504;47.312;11.060;2023-04-25T07:11:55;1.83;;;1.73;;
10902;SDS011;5504;47.312;11.060;2023-04-25T07:14:21;1.90;;;1.70;;
10902;SDS011;5504;47.312;11.060;2023-04-25T07:16:47;2.00;;;1.80;;
10902;SDS011;5504;47.312;11.060;2023-04-25T07:19:13;2.17;;;1.90;;
10902;SDS011;5504;47.312;11.060;2023-04-25T07:21:39;2.20;;;2.00;;
10902;SDS011;5504;47.312;11.060;2023-04-25T07:24:04;1.80;;;1.70;;
10902;SDS011;5504;47.312;11.060;2023-04-25T07:26:30;2.13;;;1.93;;
10902;SDS011;5504;47.312;11.060;2023-04-25T07:28:56;2.10;;;1.80;;
10902;SDS011;5504;47.312;11.060;2023-04-25T07:31:22;1.70;;;1.60;;
10902;SDS011;5504;47.312;11.060;2023-04-25T07:33:48;2.20;;;1.80;;
10902;SDS011;5504;47.312;11.060;2023-04-25T07:36:13;1.80;;;1.70;;
10902;SDS011;5504;47.312;11.060;2023-04-25T07:38:40;1.70;;;1.60;;
10902;SDS011;5504;47.312;11.060;2023-04-25T07:41:06;2.00;;;1.90;;
10902;SDS011;5504;47.312;11.060;2023-04-25T07:43:32;2.40;;;1.70;;
10902;SDS011;5504;47.312;11.060;2023-04-25T07:45:57;1.73;;;1.63;;
10902;SDS011;5504;47.312;11.060;2023-04-25T07:48:23;2.47;;;1.50;;
10902;SDS011;5504;47.312;11.060;2023-04-25T07:50:49;1.50;;;1.40;;
10902;SDS011;5504;47.312;11.060;2023-04-25T07:53:15;1.80;;;1.70;;
10902;SDS011;5504;47.312;11.060;2023-04-25T07:55:42;1.87;;;1.67;;
10902;SDS011;5504;47.312;11.060;2023-04-25T07:58:08;1.70;;;1.60;;
10902;SDS011;5504;47.312;11.060;2023-04-25T08:00:35;2.23;;;2.03;;
10902;SDS011;5504;47.312;11.060;2023-04-25T08:03:01;3.37;;;1.93;;
10902;SDS011;5504;47.312;11.060;2023-04-25T08:05:27;3.00;;;1.77;;
10902;SDS011;5504;47.312;11.060;2023-04-25T08:07:53;1.97;;;1.50;;
10902;SDS011;5504;47.312;11.060;2023-04-25T08:10:19;1.93;;;1.33;;
10902;SDS011;5504;47.312;11.060;2023-04-25T08:12:45;2.20;;;1.60;;
10902;SDS011;5504;47.312;11.060;2023-04-25T08:15:11;2.30;;;1.60;;
10902;SDS011;5504;47.312;11.060;2023-04-25T08:17:38;2.37;;;1.87;;
10902;SDS011;5504;47.312;11.060;2023-04-25T08:20:04;2.17;;;1.90;;
10902;SDS011;5504;47.312;11.060;2023-04-25T08:22:31;1.90;;;1.70;;
10902;SDS011;5504;47.312;11.060;2023-04-25T08:24:56;1.70;;;1.60;;
10902;SDS011;5504;47.312;11.060;2023-04-25T08:27:22;1.60;;;1.50;;
10902;SDS011;5504;47.312;11.060;2023-04-25T08:29:48;1.50;;;1.30;;
10902;SDS011;5504;47.312;11.060;2023-04-25T08:32:15;1.60;;;1.50;;
10902;SDS011;5504;47.312;11.060;2023-04-25T08:34:41;1.80;;;1.70;;
10902;SDS011;5504;47.312;11.060;2023-04-25T08:37:08;2.67;;;1.87;;
10902;SDS011;5504;47.312;11.060;2023-04-25T08:39:35;2.07;;;1.60;;
10902;SDS011;5504;47.312;11.060;2023-04-25T08:42:02;1.50;;;1.40;;
10902;SDS011;5504;47.312;11.060;2023-04-25T08:44:34;1.97;;;1.40;;
10902;SDS011;5504;47.312;11.060;2023-04-25T08:47:03;2.23;;;1.40;;
10902;SDS011;5504;47.312;11.060;2023-04-25T08:49:32;1.70;;;1.50;;
10902;SDS011;5504;47.312;11.060;2023-04-25T08:52:00;1.40;;;1.30;;
10902;SDS011;5504;47.312;11.060;2023-04-25T08:54:29;1.60;;;1.33;;
10902;SDS011;5504;47.312;11.060;2023-04-25T08:56:57;1.40;;;1.30;;
10902;SDS011;5504;47.312;11.060;2023-04-25T08:59:26;2.07;;;1.47;;
10902;SDS011;5504;47.312;11.060;2023-04-25T09:01:53;1.70;;;1.30;;
10902;SDS011;5504;47.312;11.060;2023-04-25T09:04:19;2.60;;;1.23;;
10902;SDS011;5504;47.312;11.060;2023-04-25T09:06:45;1.83;;;1.30;;
10902;SDS011;5504;47.312;11.060;2023-04-25T09:09:12;1.30;;;1.20;;
10902;SDS011;5504;47.312;11.060;2023-04-25T09:11:38;1.30;;;1.10;;
10902;SDS011;5504;47.312;11.060;2023-04-25T09:14:13;1.60;;;1.30;;
10902;SDS011;5504;47.312;11.060;2023-04-25T09:21:55;1.58;;;1.20;;
10902;SDS011;5504;47.312;11.060;2023-04-25T09:24:38;1.67;;;1.00;;
10902;SDS011;5504;47.312;11.060;2023-04-25T09:27:07;1.87;;;1.30;;
10902;SDS011;5504;47.312;11.060;2023-04-25T09:29:34;1.10;;;1.00;;
10902;SDS011;5504;47.312;11.060;2023-04-25T09:32:21;1.63;;;1.13;;
10902;SDS011;5504;47.312;11.060;2023-04-25T09:34:49;2.20;;;1.30;;
10902;SDS011;5504;47.312;11.060;2023-04-25T09:37:25;1.93;;;1.10;;
10902;SDS011;5504;47.312;11.060;2023-04-25T09:39:54;1.43;;;1.20;;
10902;SDS011;5504;47.312;11.060;2023-04-25T09:42:21;2.40;;;1.20;;
10902;SDS011;5504;47.312;11.060;2023-04-25T09:44:52;2.10;;;1.20;;
10902;SDS011;5504;47.312;11.060;2023-04-25T09:47:19;2.43;;;1.30;;
10902;SDS011;5504;47.312;11.060;2023-04-25T09:49:49;1.77;;;1.40;;
10902;SDS011;5504;47.312;11.060;2023-04-25T09:52:16;1.30;;;1.20;;
10902;SDS011;5504;47.312;11.060;2023-04-25T09:54:44;1.47;;;1.30;;
10902;SDS011;5504;47.312;11.060;2023-04-25T09:57:14;1.83;;;1.20;;
10902;SDS011;5504;47.312;11.060;2023-04-25T09:59:45;1.80;;;1.20;;
10902;SDS011;5504;47.312;11.060;2023-04-25T10:02:17;2.33;;;1.20;;
10902;SDS011;5504;47.312;11.060;2023-04-25T10:04:48;1.53;;;1.10;;
10902;SDS011;5504;47.312;11.060;2023-04-25T10:07:16;1.80;;;1.30;;
10902;SDS011;5504;47.312;11.060;2023-04-25T10:09:42;1.67;;;1.27;;
10902;SDS011;5504;47.312;11.060;2023-04-25T10:12:11;1.80;;;1.10;;
10902;SDS011;5504;47.312;11.060;2023-04-25T10:14:37;2.27;;;1.03;;
10902;SDS011;5504;47.312;11.060;2023-04-25T10:17:04;1.13;;;1.00;;
10902;SDS011;5504;47.312;11.060;2023-04-25T10:19:31;1.77;;;1.10;;
10902;SDS011;5504;47.312;11.060;2023-04-25T10:22:04;1.93;;;1.00;;
10902;SDS011;5504;47.312;11.060;2023-04-25T10:24:31;1.93;;;1.07;;
10902;SDS011;5504;47.312;11.060;2023-04-25T10:26:57;1.70;;;0.90;;
10902;SDS011;5504;47.312;11.060;2023-04-25T10:29:24;0.97;;;0.93;;
10902;SDS011;5504;47.312;11.060;2023-04-25T10:31:51;1.80;;;0.90;;
10902;SDS011;5504;47.312;11.060;2023-04-25T10:34:17;1.43;;;1.00;;
10902;SDS011;5504;47.312;11.060;2023-04-25T10:36:44;0.90;;;0.90;;
10902;SDS011;5504;47.312;11.060;2023-04-25T10:39:21;1.27;;;0.90;;
10902;SDS011;5504;47.312;11.060;2023-04-25T10:41:52;0.70;;;0.70;;
10902;SDS011;5504;47.312;11.060;2023-04-25T10:44:21;2.03;;;0.80;;
10902;SDS011;5504;47.312;11.060;2023-04-25T10:46:46;1.20;;;0.90;;
10902;SDS011;5504;47.312;11.060;2023-04-25T10:49:27;1.07;;;0.90;;
10902;SDS011;5504;47.312;11.060;2023-04-25T10:54:53;1.17;;;0.77;;
10902;SDS011;5504;47.312;11.060;2023-04-25T10:57:37;1.40;;;0.87;;
10902;SDS011;5504;47.312;11.060;2023-04-25T11:02:45;1.80;;;0.80;;
10902;SDS011;5504;47.312;11.060;2023-04-25T11:05:20;1.93;;;0.90;;
10902;SDS011;5504;47.312;11.060;2023-04-25T11:07:59;2.57;;;1.00;;
10902;SDS011;5504;47.312;11.060;2023-04-25T11:10:29;1.20;;;0.80;;
10902;SDS011;5504;47.312;11.060;2023-04-25T11:12:57;1.67;;;1.00;;
10902;SDS011;5504;47.312;11.060;2023-04-25T11:15:23;0.70;;;0.60;;
10902;SDS011;5504;47.312;11.060;2023-04-25T11:17:52;0.70;;;0.60;;
10902;SDS011;5504;47.312;11.060;2023-04-25T11:20:19;0.70;;;0.70;;
10902;SDS011;5504;47.312;11.060;2023-04-25T11:22:46;1.10;;;0.70;;
10902;SDS011;5504;47.312;11.060;2023-04-25T11:25:13;0.70;;;0.70;;
10902;SDS011;5504;47.312;11.060;2023-04-25T11:27:50;1.17;;;1.00;;
10902;SDS011;5504;47.312;11.060;2023-04-25T11:30:22;1.07;;;0.70;;
10902;SDS011;5504;47.312;11.060;2023-04-25T11:32:49;1.40;;;0.87;;
10902;SDS011;5504;47.312;11.060;2023-04-25T11:35:15;1.33;;;0.80;;
10902;SDS011;5504;47.312;11.060;2023-04-25T11:37:41;1.00;;;0.90;;
10902;SDS011;5504;47.312;11.060;2023-04-25T11:40:08;1.83;;;0.90;;
10902;SDS011;5504;47.312;11.060;2023-04-25T11:42:36;1.70;;;0.80;;
10902;SDS011;5504;47.312;11.060;2023-04-25T11:45:09;1.47;;;0.90;;
10902;SDS011;5504;47.312;11.060;2023-04-25T11:47:35;2.10;;;0.70;;
10902;SDS011;5504;47.312;11.060;2023-04-25T11:50:02;1.00;;;0.70;;
10902;SDS011;5504;47.312;11.060;2023-04-25T11:52:42;1.17;;;0.70;;
10902;SDS011;5504;47.312;11.060;2023-04-25T11:55:19;1.27;;;0.80;;
10902;SDS011;5504;47.312;11.060;2023-04-25T11:57:46;1.00;;;0.90;;
10902;SDS011;5504;47.312;11.060;2023-04-25T12:00:17;1.20;;;0.70;;
10902;SDS011;5504;47.312;11.060;2023-04-25T12:02:55;1.50;;;0.73;;
10902;SDS011;5504;47.312;11.060;2023-04-25T12:05:26;1.40;;;0.80;;
10902;SDS011;5504;47.312;11.060;2023-04-25T12:07:54;1.17;;;0.63;;
10902;SDS011;5504;47.312;11.060;2023-04-25T12:10:20;0.90;;;0.80;;
10902;SDS011;5504;47.312;11.060;2023-04-25T12:12:46;0.60;;;0.60;;
10902;SDS011;5504;47.312;11.060;2023-04-25T12:15:25;1.43;;;0.60;;
10902;SDS011;5504;47.312;11.060;2023-04-25T12:17:52;0.70;;;0.57;;
10902;SDS011;5504;47.312;11.060;2023-04-25T12:20:20;1.60;;;0.60;;
10902;SDS011;5504;47.312;11.060;2023-04-25T12:22:48;0.60;;;0.60;;
10902;SDS011;5504;47.312;11.060;2023-04-25T12:28:16;1.07;;;0.60;;
10902;SDS011;5504;47.312;11.060;2023-04-25T12:30:52;0.70;;;0.70;;
10902;SDS011;5504;47.312;11.060;2023-04-25T12:33:26;0.77;;;0.70;;
10902;SDS011;5504;47.312;11.060;2023-04-25T12:35:56;0.97;;;0.60;;
10902;SDS011;5504;47.312;11.060;2023-04-25T12:40:48;0.90;;;0.70;;
10902;SDS011;5504;47.312;11.060;2023-04-25T12:43:14;1.60;;;0.80;;
10902;SDS011;5504;47.312;11.060;2023-04-25T12:45:40;0.63;;;0.63;;
10902;SDS011;5504;47.312;11.060;2023-04-25T12:48:06;1.03;;;0.60;;
10902;SDS011;5504;47.312;11.060;2023-04-25T12:50:31;0.67;;;0.60;;
10902;SDS011;5504;47.312;11.060;2023-04-25T12:52:57;1.67;;;0.77;;
10902;SDS011;5504;47.312;11.060;2023-04-25T12:55:23;0.80;;;0.60;;
10902;SDS011;5504;47.312;11.060;2023-04-25T12:57:48;0.50;;;0.50;;
10902;SDS011;5504;47.312;11.060;2023-04-25T13:00:14;1.00;;;0.70;;
10902;SDS011;5504;47.312;11.060;2023-04-25T13:02:43;1.03;;;0.60;;
10902;SDS011;5504;47.312;11.060;2023-04-25T13:05:08;1.00;;;0.50;;
10902;SDS011;5504;47.312;11.060;2023-04-25T13:07:34;0.80;;;0.60;;
10902;SDS011;5504;47.312;11.060;2023-04-25T13:10:00;0.87;;;0.60;;
10902;SDS011;5504;47.312;11.060;2023-04-25T13:12:27;1.13;;;0.60;;
10902;SDS011;5504;47.312;11.060;2023-04-25T13:14:53;0.87;;;0.60;;
10902;SDS011;5504;47.312;11.060;2023-04-25T13:17:18;0.83;;;0.70;;
10902;SDS011;5504;47.312;11.060;2023-04-25T13:19:44;0.47;;;0.47;;
10902;SDS011;5504;47.312;11.060;2023-04-25T13:22:10;0.80;;;0.60;;
10902;SDS011;5504;47.312;11.060;2023-04-25T13:24:36;0.60;;;0.60;;
10902;SDS011;5504;47.312;11.060;2023-04-25T13:27:01;1.57;;;0.70;;
10902;SDS011;5504;47.312;11.060;2023-04-25T13:29:28;0.50;;;0.50;;
10902;SDS011;5504;47.312;11.060;2023-04-25T13:31:53;0.63;;;0.50;;
10902;SDS011;5504;47.312;11.060;2023-04-25T13:34:19;0.47;;;0.47;;
10902;SDS011;5504;47.312;11.060;2023-04-25T13:36:45;0.70;;;0.50;;
10902;SDS011;5504;47.312;11.060;2023-04-25T13:39:11;0.63;;;0.57;;
10902;SDS011;5504;47.312;11.060;2023-04-25T13:41:37;0.50;;;0.50;;
10902;SDS011;5504;47.312;11.060;2023-04-25T13:44:02;0.53;;;0.53;;
10902;SDS011;5504;47.312;11.060;2023-04-25T13:46:28;0.60;;;0.60;;
10902;SDS011;5504;47.312;11.060;2023-04-25T13:48:54;0.60;;;0.60;;
10902;SDS011;5504;47.312;11.060;2023-04-25T13:51:20;0.53;;;0.53;;
10902;SDS011;5504;47.312;11.060;2023-04-25T13:53:45;0.53;;;0.53;;
10902;SDS011;5504;47.312;11.060;2023-04-25T13:56:11;1.33;;;0.50;;
10902;SDS011;5504;47.312;11.060;2023-04-25T13:58:37;1.00;;;0.50;;
10902;SDS011;5504;47.312;11.060;2023-04-25T14:01:03;1.53;;;0.70;;
10902;SDS011;5504;47.312;11.060;2023-04-25T14:03:29;0.50;;;0.50;;
10902;SDS011;5504;47.312;11.060;2023-04-25T14:05:55;0.73;;;0.40;;
10902;SDS011;5504;47.312;11.060;2023-04-25T14:08:21;1.07;;;0.43;;
10902;SDS011;5504;47.312;11.060;2023-04-25T14:10:46;0.50;;;0.43;;
10902;SDS011;5504;47.312;11.060;2023-04-25T14:13:12;0.77;;;0.47;;
10902;SDS011;5504;47.312;11.060;2023-04-25T14:15:38;0.47;;;0.40;;
10902;SDS011;5504;47.312;11.060;2023-04-25T14:18:03;0.40;;;0.40;;
10902;SDS011;5504;47.312;11.060;2023-04-25T14:20:30;0.40;;;0.40;;
10902;SDS011;5504;47.312;11.060;2023-04-25T14:22:56;0.80;;;0.50;;
10902;SDS011;5504;47.312;11.060;2023-04-25T14:25:23;0.80;;;0.80;;
10902;SDS011;5504;47.312;11.060;2023-04-25T14:27:49;1.30;;;0.43;;
10902;SDS011;5504;47.312;11.060;2023-04-25T14:30:18;1.47;;;0.50;;
10902;SDS011;5504;47.312;11.060;2023-04-25T14:32:45;0.57;;;0.40;;
10902;SDS011;5504;47.312;11.060;2023-04-25T14:35:11;1.47;;;0.50;;
10902;SDS011;5504;47.312;11.060;2023-04-25T14:37:37;0.47;;;0.40;;
10902;SDS011;5504;47.312;11.060;2023-04-25T14:40:03;0.90;;;0.70;;
10902;SDS011;5504;47.312;11.060;2023-04-25T14:42:29;4.30;;;2.27;;
10902;SDS011;5504;47.312;11.060;2023-04-25T14:44:55;2.63;;;1.50;;
10902;SDS011;5504;47.312;11.060;2023-04-25T14:47:21;3.70;;;1.80;;
10902;SDS011;5504;47.312;11.060;2023-04-25T14:49:46;12.67;;;7.17;;
10902;SDS011;5504;47.312;11.060;2023-04-25T14:52:18;10.30;;;5.43;;
10902;SDS011;5504;47.312;11.060;2023-04-25T14:54:47;3.57;;;2.00;;
10902;SDS011;5504;47.312;11.060;2023-04-25T14:57:13;15.60;;;7.80;;
10902;SDS011;5504;47.312;11.060;2023-04-25T14:59:39;6.97;;;3.53;;
10902;SDS011;5504;47.312;11.060;2023-04-25T15:02:05;0.63;;;0.63;;